Time;durP1;ratioP1;P1;durP2;ratioP2;P2;SDS_P1;SDS_P2;PMS_P1;PMS_P2;Temp;Humidity;BMP_temperature;BMP_pressure;BME280_temperature;BME280_humidity;BME280_pressure;Samples;Min_cycle;Max_cycle;Signal;HPM_P1;HPM_P2
2021/08/03 00:01:04;;;;;;;3.00;2.00;;;14.20;99.90;;;;;;5054893;28;20473;-67
2021/08/03 00:03:35;;;;;;;2.20;2.00;;;14.10;99.90;;;;;;5055466;28;20458;-67
2021/08/03 00:06:09;;;;;;;2.27;1.90;;;14.10;99.90;;;;;;5055242;28;20998;-67
2021/08/03 00:08:39;;;;;;;1.60;1.40;;;14.10;99.90;;;;;;5055767;28;20524;-67
2021/08/03 00:11:07;;;;;;;3.50;1.77;;;14.10;99.90;;;;;;5054848;28;20474;-67
2021/08/03 00:13:34;;;;;;;2.23;2.03;;;14.20;99.90;;;;;;5055398;28;20463;-67
2021/08/03 00:16:04;;;;;;;1.87;1.77;;;14.20;99.90;;;;;;5055246;28;20482;-67
2021/08/03 00:18:31;;;;;;;2.30;1.80;;;14.20;99.90;;;;;;5055497;28;20469;-67
2021/08/03 00:20:59;;;;;;;2.80;1.90;;;14.20;99.90;;;;;;5054854;28;20474;-67
2021/08/03 00:23:28;;;;;;;1.80;1.47;;;14.20;99.90;;;;;;5055364;28;20467;-67
2021/08/03 00:25:55;;;;;;;1.97;1.77;;;14.20;99.90;;;;;;5055253;28;20524;-68
2021/08/03 00:28:22;;;;;;;2.17;1.90;;;14.30;99.90;;;;;;5055501;28;20458;-67
2021/08/03 00:30:53;;;;;;;1.80;1.70;;;14.30;99.90;;;;;;5054766;28;21184;-67
2021/08/03 00:33:20;;;;;;;2.07;1.87;;;14.30;99.90;;;;;;5055437;28;20470;-67
2021/08/03 00:35:50;;;;;;;1.77;1.50;;;14.30;99.90;;;;;;5055348;28;20478;-67
2021/08/03 00:38:16;;;;;;;2.80;2.00;;;14.30;99.90;;;;;;5055422;28;20521;-67
2021/08/03 00:40:52;;;;;;;2.77;2.00;;;14.30;99.90;;;;;;5055057;28;20463;-67
2021/08/03 00:43:18;;;;;;;2.80;1.80;;;14.30;99.90;;;;;;5055496;28;20501;-67
2021/08/03 00:45:45;;;;;;;2.00;1.70;;;14.30;99.90;;;;;;5054883;28;20490;-67
2021/08/03 00:48:12;;;;;;;1.60;1.50;;;14.20;99.90;;;;;;5055462;28;20469;-67
2021/08/03 00:50:39;;;;;;;2.13;1.63;;;14.20;99.90;;;;;;5054445;28;20570;-67
2021/08/03 00:53:06;;;;;;;2.93;2.20;;;14.20;99.90;;;;;;5055045;28;20471;-67
2021/08/03 00:55:32;;;;;;;2.37;1.63;;;14.20;99.90;;;;;;5055212;28;20474;-67
2021/08/03 00:58:01;;;;;;;2.27;1.93;;;14.20;99.90;;;;;;5052808;28;20467;-68
2021/08/03 01:00:27;;;;;;;1.77;1.60;;;14.20;99.90;;;;;;5051607;28;20471;-67
2021/08/03 01:02:54;;;;;;;2.33;2.13;;;14.20;99.90;;;;;;5051970;28;20546;-68
2021/08/03 01:05:22;;;;;;;2.07;1.93;;;14.20;99.90;;;;;;5051867;28;21028;-68
2021/08/03 01:08:00;;;;;;;2.30;1.63;;;14.20;99.90;;;;;;5051631;28;20844;-68
2021/08/03 01:10:34;;;;;;;2.10;1.90;;;14.20;99.90;;;;;;5051410;28;20459;-68
2021/08/03 01:13:08;;;;;;;2.37;2.17;;;14.20;99.90;;;;;;5051544;28;20467;-68
2021/08/03 01:15:43;;;;;;;2.30;1.80;;;14.20;99.90;;;;;;5051752;28;20478;-67
2021/08/03 01:18:16;;;;;;;2.33;2.10;;;14.10;99.90;;;;;;5051326;28;20495;-68
2021/08/03 01:21:10;;;;;;;2.07;1.87;;;14.00;99.90;;;;;;5051140;28;20534;-68
2021/08/03 01:23:58;;;;;;;2.43;2.23;;;14.00;99.90;;;;;;5051445;28;20473;-67
2021/08/03 01:26:51;;;;;;;2.30;1.90;;;14.00;99.90;;;;;;5051410;28;20565;-67
2021/08/03 01:29:22;;;;;;;2.70;2.00;;;14.00;99.90;;;;;;5051029;28;20468;-67
2021/08/03 01:31:53;;;;;;;2.37;2.00;;;14.00;99.90;;;;;;5050927;28;20550;-67
2021/08/03 01:34:22;;;;;;;2.40;1.90;;;14.00;99.90;;;;;;5051375;28;20882;-67
2021/08/03 01:36:53;;;;;;;1.73;1.60;;;14.00;99.90;;;;;;5051024;28;20486;-66
2021/08/03 01:39:25;;;;;;;2.90;2.03;;;13.90;99.90;;;;;;5050919;28;20466;-68
2021/08/03 01:41:54;;;;;;;2.13;1.60;;;13.90;99.90;;;;;;5050320;28;21182;-67
2021/08/03 01:44:23;;;;;;;2.20;2.00;;;13.90;99.90;;;;;;5051227;28;20560;-67
2021/08/03 01:46:51;;;;;;;3.13;2.00;;;14.00;99.90;;;;;;5050739;28;20531;-68
2021/08/03 01:49:20;;;;;;;2.40;1.70;;;14.00;99.90;;;;;;5050697;28;20816;-67
2021/08/03 01:51:48;;;;;;;3.67;1.80;;;13.90;99.90;;;;;;5050709;28;20992;-66
2021/08/03 01:54:17;;;;;;;1.80;1.70;;;14.00;99.90;;;;;;5051102;28;20463;-67
2021/08/03 01:56:45;;;;;;;2.63;2.23;;;14.00;99.90;;;;;;5050948;28;21070;-68
2021/08/03 01:59:13;;;;;;;1.60;1.50;;;14.00;99.90;;;;;;5050308;28;20464;-68
2021/08/03 02:01:42;;;;;;;2.00;1.90;;;14.00;99.90;;;;;;5050686;28;20463;-67
2021/08/03 02:04:09;;;;;;;2.10;1.90;;;14.00;99.90;;;;;;5050785;28;20459;-67
2021/08/03 02:06:38;;;;;;;1.60;1.50;;;14.00;99.90;;;;;;5050685;28;20495;-67
2021/08/03 02:09:07;;;;;;;2.20;2.00;;;14.00;99.90;;;;;;5050265;28;20573;-68
2021/08/03 02:11:35;;;;;;;2.17;1.97;;;14.00;99.90;;;;;;5050448;28;20464;-67
2021/08/03 02:14:03;;;;;;;2.77;2.10;;;14.00;99.90;;;;;;5050519;28;20463;-67
2021/08/03 02:16:31;;;;;;;2.33;2.13;;;14.00;99.90;;;;;;5050502;28;20482;-67
2021/08/03 02:18:59;;;;;;;2.10;1.90;;;14.00;99.90;;;;;;5050300;28;20460;-67
2021/08/03 02:21:26;;;;;;;1.93;1.80;;;14.00;99.90;;;;;;5050040;28;20472;-67
2021/08/03 02:23:53;;;;;;;1.97;1.73;;;14.00;99.90;;;;;;5050183;28;20459;-67
2021/08/03 02:26:20;;;;;;;1.80;1.70;;;14.00;99.90;;;;;;5050117;28;20578;-67
2021/08/03 02:28:47;;;;;;;3.07;2.17;;;14.10;99.90;;;;;;5050200;28;20463;-67
2021/08/03 02:31:19;;;;;;;2.07;1.73;;;14.10;99.90;;;;;;5050041;28;20466;-67
2021/08/03 02:33:52;;;;;;;3.87;2.10;;;14.10;99.90;;;;;;5050012;28;20459;-68
2021/08/03 02:36:23;;;;;;;1.77;1.63;;;14.10;99.90;;;;;;5050373;28;20821;-67
2021/08/03 02:38:56;;;;;;;2.87;2.07;;;14.10;99.90;;;;;;5050150;28;20466;-67
2021/08/03 02:41:23;;;;;;;1.90;1.80;;;14.10;99.90;;;;;;5049636;28;20463;-67
2021/08/03 02:43:52;;;;;;;2.10;2.00;;;14.10;99.90;;;;;;5049765;28;20464;-67
2021/08/03 02:46:22;;;;;;;3.43;1.93;;;14.10;99.90;;;;;;5050085;28;20586;-67
2021/08/03 02:49:00;;;;;;;2.10;1.90;;;14.10;99.90;;;;;;5049686;28;20491;-67
2021/08/03 02:51:31;;;;;;;2.47;1.70;;;14.10;99.90;;;;;;5049475;28;20467;-67
2021/08/03 02:54:01;;;;;;;2.20;2.00;;;14.00;99.90;;;;;;5050036;28;20456;-68
2021/08/03 02:56:31;;;;;;;2.00;1.77;;;14.00;99.90;;;;;;5049671;28;20479;-69
2021/08/03 02:59:03;;;;;;;2.37;1.90;;;14.00;99.90;;;;;;5049900;28;20467;-68
2021/08/03 03:01:37;;;;;;;2.60;2.00;;;14.00;99.90;;;;;;5049425;28;20459;-68
2021/08/03 03:04:10;;;;;;;3.97;1.70;;;13.90;99.90;;;;;;5049647;28;20459;-67
2021/08/03 03:06:40;;;;;;;2.17;1.87;;;13.90;99.90;;;;;;5049736;28;20491;-67
2021/08/03 03:09:09;;;;;;;2.43;1.90;;;13.80;99.90;;;;;;5049485;28;20463;-67
2021/08/03 03:11:38;;;;;;;2.53;1.90;;;13.80;99.90;;;;;;5049728;28;20459;-67
2021/08/03 03:14:07;;;;;;;2.40;2.00;;;13.70;99.90;;;;;;5049344;28;20474;-68
2021/08/03 03:16:40;;;;;;;2.20;2.00;;;13.70;99.90;;;;;;5049636;28;20479;-68
2021/08/03 03:19:08;;;;;;;2.73;1.80;;;13.60;99.90;;;;;;5049156;28;20472;-68
2021/08/03 03:21:37;;;;;;;4.73;2.20;;;13.60;99.90;;;;;;5049067;28;20839;-67
2021/08/03 03:24:06;;;;;;;2.70;2.23;;;13.50;99.90;;;;;;5049050;28;20498;-67
2021/08/03 03:26:35;;;;;;;2.23;2.03;;;13.50;99.90;;;;;;5049157;28;20487;-67
2021/08/03 03:29:02;;;;;;;4.00;1.93;;;13.50;99.90;;;;;;5048958;28;20459;-67
2021/08/03 03:31:31;;;;;;;1.90;1.80;;;13.50;99.90;;;;;;5048942;28;20959;-67
2021/08/03 03:34:00;;;;;;;2.10;1.90;;;13.50;99.90;;;;;;5048493;28;20467;-68
2021/08/03 03:36:31;;;;;;;2.63;1.90;;;13.50;99.90;;;;;;5049148;28;21010;-67
2021/08/03 03:39:00;;;;;;;1.50;1.40;;;13.50;99.90;;;;;;5049083;28;20962;-67
2021/08/03 03:41:29;;;;;;;3.43;1.50;;;13.40;99.90;;;;;;5048851;28;20465;-67
2021/08/03 03:43:56;;;;;;;4.93;2.50;;;13.40;99.90;;;;;;5049197;28;20549;-66
2021/08/03 03:46:34;;;;;;;2.30;1.90;;;13.30;99.90;;;;;;5048887;28;20487;-68
2021/08/03 03:49:08;;;;;;;2.33;2.13;;;13.30;99.90;;;;;;5049188;28;20455;-68
2021/08/03 03:51:40;;;;;;;2.33;1.80;;;13.30;99.90;;;;;;5044533;28;20566;-68
2021/08/03 03:54:10;;;;;;;2.27;1.70;;;13.30;99.90;;;;;;5051780;28;20973;-66
2021/08/03 03:56:41;;;;;;;3.60;1.73;;;13.30;99.90;;;;;;5057497;28;20470;-67
2021/08/03 03:59:10;;;;;;;2.80;1.90;;;13.30;99.90;;;;;;5067945;28;20496;-66
2021/08/03 04:01:38;;;;;;;1.90;1.70;;;13.30;99.90;;;;;;5068765;28;20471;-67
2021/08/03 04:04:06;;;;;;;2.10;1.90;;;13.20;99.90;;;;;;5048627;28;20836;-66
2021/08/03 04:06:34;;;;;;;2.20;2.00;;;13.20;99.90;;;;;;5048359;28;20858;-66
2021/08/03 04:09:01;;;;;;;2.20;1.77;;;13.20;99.90;;;;;;5048415;28;20459;-67
2021/08/03 04:11:29;;;;;;;2.20;1.80;;;13.20;99.90;;;;;;5047756;28;20482;-66
2021/08/03 04:13:56;;;;;;;1.77;1.60;;;13.20;99.90;;;;;;5048243;28;20842;-66
2021/08/03 04:16:23;;;;;;;2.07;1.77;;;13.20;99.90;;;;;;5048325;28;20540;-66
2021/08/03 04:18:50;;;;;;;2.77;2.03;;;13.20;99.90;;;;;;5048625;28;20490;-67
2021/08/03 04:21:17;;;;;;;3.00;2.00;;;13.20;99.90;;;;;;5048139;28;20463;-67
2021/08/03 04:23:43;;;;;;;2.60;2.27;;;13.20;99.90;;;;;;5048423;28;20459;-67
2021/08/03 04:26:11;;;;;;;2.57;1.80;;;13.20;99.90;;;;;;5047897;28;20479;-67
2021/08/03 04:28:39;;;;;;;3.07;2.00;;;13.20;99.90;;;;;;5048525;28;20471;-67
2021/08/03 04:31:06;;;;;;;2.27;1.80;;;13.20;99.90;;;;;;5047717;28;20467;-67
2021/08/03 04:33:33;;;;;;;2.10;1.70;;;13.20;99.90;;;;;;5049614;28;20986;-66
2021/08/03 04:35:59;;;;;;;3.00;1.80;;;13.20;99.90;;;;;;5051882;28;20487;-68
2021/08/03 04:38:26;;;;;;;2.30;2.10;;;13.20;99.90;;;;;;5052042;28;20470;-67
2021/08/03 04:40:54;;;;;;;2.93;2.20;;;13.20;99.90;;;;;;5051144;28;20471;-67
2021/08/03 04:43:20;;;;;;;6.20;1.80;;;13.30;99.90;;;;;;5052012;28;20496;-66
2021/08/03 04:45:48;;;;;;;1.90;1.70;;;13.30;99.90;;;;;;5051633;28;20889;-67
2021/08/03 04:48:15;;;;;;;2.40;2.20;;;13.30;99.90;;;;;;5052145;28;20494;-67
2021/08/03 04:50:42;;;;;;;1.90;1.80;;;13.30;99.90;;;;;;5124637;22;20433;-67
2021/08/03 04:53:09;;;;;;;3.20;2.20;;;13.30;99.90;;;;;;5050609;28;20462;-67
2021/08/03 04:55:35;;;;;;;2.07;1.87;;;13.30;99.90;;;;;;5051464;28;20479;-67
2021/08/03 04:58:02;;;;;;;2.30;2.10;;;13.40;99.90;;;;;;5051221;28;20968;-68
2021/08/03 05:00:29;;;;;;;1.93;1.83;;;13.30;99.90;;;;;;5043734;28;20952;-67
2021/08/03 05:02:57;;;;;;;2.53;2.33;;;13.30;99.90;;;;;;5011409;28;20488;-68
2021/08/03 05:05:24;;;;;;;2.70;2.50;;;13.40;99.90;;;;;;5011712;28;20492;-68
2021/08/03 05:07:58;;;;;;;2.07;1.97;;;13.40;99.90;;;;;;5011310;28;20503;-67
2021/08/03 05:10:25;;;;;;;3.17;2.20;;;13.40;99.90;;;;;;5011264;28;20461;-67
2021/08/03 05:12:52;;;;;;;2.13;1.93;;;13.40;99.90;;;;;;5011370;28;20857;-67
2021/08/03 05:15:19;;;;;;;2.20;2.00;;;13.50;99.90;;;;;;5011581;28;20492;-67
2021/08/03 05:17:46;;;;;;;2.27;2.07;;;13.50;99.90;;;;;;5011335;28;20466;-67
2021/08/03 05:20:14;;;;;;;2.57;2.00;;;13.50;99.90;;;;;;5010958;28;20460;-67
2021/08/03 05:22:41;;;;;;;2.33;2.13;;;13.50;99.90;;;;;;5011041;28;20472;-67
2021/08/03 05:25:09;;;;;;;3.10;1.90;;;13.60;99.90;;;;;;5011096;28;21001;-67
2021/08/03 05:27:36;;;;;;;2.00;1.57;;;13.60;99.90;;;;;;5011165;28;20489;-67
2021/08/03 05:30:03;;;;;;;3.03;2.40;;;13.60;99.90;;;;;;5010605;28;20468;-67
2021/08/03 05:32:30;;;;;;;3.07;2.27;;;13.60;99.90;;;;;;5011077;28;20461;-67
2021/08/03 05:34:57;;;;;;;3.00;2.23;;;13.60;99.90;;;;;;5010865;28;20805;-67
2021/08/03 05:37:25;;;;;;;2.43;2.00;;;13.60;99.90;;;;;;5011007;28;20460;-67
2021/08/03 05:39:51;;;;;;;3.70;2.20;;;13.70;99.90;;;;;;5010300;28;20984;-67
2021/08/03 05:42:18;;;;;;;3.77;2.30;;;13.70;99.90;;;;;;5011051;28;20466;-67
2021/08/03 05:44:45;;;;;;;3.43;2.00;;;13.70;99.90;;;;;;5010222;28;20469;-67
2021/08/03 05:47:11;;;;;;;2.70;1.80;;;13.80;99.90;;;;;;5010843;28;20497;-67
2021/08/03 05:49:38;;;;;;;2.40;2.10;;;13.80;99.90;;;;;;5010353;28;20461;-67
2021/08/03 05:52:05;;;;;;;3.03;2.10;;;13.80;99.90;;;;;;5010533;28;20473;-67
2021/08/03 05:54:33;;;;;;;2.10;1.90;;;13.80;99.90;;;;;;5010498;28;20469;-67
2021/08/03 05:57:00;;;;;;;2.80;2.30;;;13.90;99.90;;;;;;5010619;28;20469;-67
2021/08/03 05:59:26;;;;;;;2.53;2.00;;;13.90;99.90;;;;;;5010164;28;20943;-68
2021/08/03 06:01:53;;;;;;;2.37;2.17;;;13.90;99.90;;;;;;5010414;28;20465;-67
2021/08/03 06:04:20;;;;;;;2.50;2.30;;;13.90;99.90;;;;;;5010676;28;20465;-67
2021/08/03 06:06:48;;;;;;;1.80;1.60;;;14.00;99.90;;;;;;5009889;28;20489;-67
2021/08/03 06:09:15;;;;;;;1.83;1.70;;;14.00;99.90;;;;;;5010041;28;20468;-68
2021/08/03 06:11:47;;;;;;;3.73;2.27;;;14.10;99.90;;;;;;5010058;28;20863;-67
2021/08/03 06:14:19;;;;;;;2.73;1.97;;;14.10;99.90;;;;;;5010301;28;20952;-67
2021/08/03 06:16:53;;;;;;;1.87;1.77;;;14.20;99.90;;;;;;5009826;28;20485;-67
2021/08/03 06:19:23;;;;;;;2.20;2.00;;;14.20;99.90;;;;;;5009914;28;20960;-67
2021/08/03 06:21:50;;;;;;;1.70;1.60;;;14.20;99.90;;;;;;5009910;28;20465;-68
2021/08/03 06:24:17;;;;;;;2.20;2.00;;;14.30;99.90;;;;;;5009948;28;20461;-67
2021/08/03 06:26:46;;;;;;;2.80;1.90;;;14.30;99.90;;;;;;5009703;28;20496;-67
2021/08/03 06:29:14;;;;;;;2.50;1.70;;;14.30;99.90;;;;;;5009433;28;20465;-67
2021/08/03 06:31:41;;;;;;;2.30;1.93;;;14.40;99.90;;;;;;5009710;28;20519;-67
2021/08/03 06:34:09;;;;;;;2.20;2.00;;;14.50;99.90;;;;;;5009840;28;20855;-67
2021/08/03 06:36:35;;;;;;;1.63;1.53;;;14.50;99.90;;;;;;5009712;28;20489;-67
2021/08/03 06:39:02;;;;;;;2.30;1.83;;;14.50;99.90;;;;;;5009627;28;20457;-67
2021/08/03 06:41:32;;;;;;;3.33;1.80;;;14.60;99.90;;;;;;5009755;28;20456;-68
2021/08/03 06:44:07;;;;;;;1.93;1.70;;;14.70;99.90;;;;;;5009623;28;20491;-67
2021/08/03 06:46:35;;;;;;;1.63;1.53;;;14.80;99.90;;;;;;5009457;28;20484;-67
2021/08/03 06:49:04;;;;;;;1.67;1.40;;;14.80;99.90;;;;;;5009599;28;20469;-67
2021/08/03 06:51:34;;;;;;;4.57;1.70;;;14.90;99.90;;;;;;5009450;28;20480;-68
2021/08/03 06:54:04;;;;;;;1.90;1.70;;;15.00;99.90;;;;;;5009860;28;20473;-67
2021/08/03 06:56:34;;;;;;;1.77;1.67;;;15.10;99.90;;;;;;5008794;28;20489;-68
2021/08/03 06:59:04;;;;;;;2.03;1.87;;;15.20;99.90;;;;;;5009749;28;20476;-68
2021/08/03 07:01:39;;;;;;;1.87;1.40;;;15.20;99.90;;;;;;5009370;28;20457;-67
2021/08/03 07:04:06;;;;;;;2.30;1.67;;;15.30;99.90;;;;;;5009298;28;20551;-68
2021/08/03 07:06:34;;;;;;;2.17;1.77;;;15.30;99.90;;;;;;5009366;28;20569;-68
2021/08/03 07:09:05;;;;;;;1.90;1.70;;;15.30;99.90;;;;;;5008996;28;20493;-67
2021/08/03 07:11:32;;;;;;;2.03;1.87;;;15.40;99.90;;;;;;5009003;28;20526;-68
2021/08/03 07:13:59;;;;;;;1.73;1.60;;;15.40;99.90;;;;;;5008839;28;20983;-67
2021/08/03 07:16:28;;;;;;;3.03;2.00;;;15.50;99.90;;;;;;5009331;28;20492;-68
2021/08/03 07:18:56;;;;;;;1.73;1.63;;;15.60;99.90;;;;;;5009079;28;20461;-67
2021/08/03 07:21:25;;;;;;;1.60;1.50;;;15.70;99.90;;;;;;5008503;28;20464;-67
2021/08/03 07:23:54;;;;;;;2.93;1.73;;;15.70;99.90;;;;;;5009053;28;20465;-67
2021/08/03 07:26:21;;;;;;;3.80;2.10;;;15.80;99.90;;;;;;5008782;28;20517;-67
2021/08/03 07:28:48;;;;;;;1.80;1.70;;;15.80;99.90;;;;;;5008710;28;21136;-67
2021/08/03 07:31:15;;;;;;;1.77;1.67;;;15.90;99.90;;;;;;5008919;28;20464;-67
2021/08/03 07:33:43;;;;;;;1.70;1.50;;;16.00;99.90;;;;;;5008674;28;20467;-67
2021/08/03 07:36:10;;;;;;;1.90;1.70;;;16.00;99.90;;;;;;5009015;28;20480;-67
2021/08/03 07:38:37;;;;;;;1.83;1.73;;;16.00;99.90;;;;;;5008878;28;20457;-67
2021/08/03 07:41:04;;;;;;;1.87;1.70;;;16.00;99.90;;;;;;5008466;28;20469;-67
2021/08/03 07:43:30;;;;;;;2.77;2.10;;;16.10;99.90;;;;;;5008904;28;20461;-67
2021/08/03 07:45:57;;;;;;;1.80;1.70;;;16.10;99.90;;;;;;5008532;28;20495;-67
2021/08/03 07:48:24;;;;;;;2.50;1.70;;;16.10;99.90;;;;;;5008763;28;21012;-68
2021/08/03 07:50:52;;;;;;;1.80;1.70;;;16.10;99.90;;;;;;5008234;28;20492;-67
2021/08/03 07:53:19;;;;;;;2.00;1.80;;;16.20;99.90;;;;;;5008210;28;20472;-67
2021/08/03 07:55:45;;;;;;;2.40;1.63;;;16.30;99.90;;;;;;5016698;28;20483;-67
2021/08/03 07:58:12;;;;;;;3.10;1.83;;;16.40;99.90;;;;;;5020312;28;20448;-67
2021/08/03 08:00:39;;;;;;;1.90;1.70;;;16.50;99.90;;;;;;5027979;28;20656;-67
2021/08/03 08:03:05;;;;;;;2.13;1.80;;;16.60;99.90;;;;;;5028044;28;20471;-67
2021/08/03 08:05:32;;;;;;;1.97;1.77;;;16.60;99.90;;;;;;5022668;28;20484;-67
2021/08/03 08:08:00;;;;;;;3.50;2.00;;;16.60;99.90;;;;;;5016036;28;20522;-67
2021/08/03 08:10:27;;;;;;;3.00;2.33;;;16.60;99.90;;;;;;5031502;28;20452;-67
2021/08/03 08:12:53;;;;;;;2.10;1.67;;;16.70;99.90;;;;;;5032234;28;20464;-68
2021/08/03 08:15:20;;;;;;;2.10;1.90;;;16.70;99.90;;;;;;5032671;28;20507;-68
2021/08/03 08:17:47;;;;;;;2.43;1.80;;;16.80;99.90;;;;;;5032096;28;20963;-68
2021/08/03 08:20:14;;;;;;;1.90;1.70;;;16.80;99.90;;;;;;5017382;28;20464;-68
2021/08/03 08:22:41;;;;;;;1.73;1.63;;;16.90;99.90;;;;;;5014610;28;20461;-67
2021/08/03 08:25:11;;;;;;;2.33;1.77;;;16.90;99.90;;;;;;5012132;28;20491;-67
2021/08/03 08:27:38;;;;;;;2.70;1.77;;;16.90;99.90;;;;;;5011944;28;20531;-67
2021/08/03 08:30:06;;;;;;;2.40;1.90;;;16.90;99.90;;;;;;5011008;28;20461;-67
2021/08/03 08:32:34;;;;;;;2.60;1.90;;;16.90;99.90;;;;;;5012219;28;20961;-67
2021/08/03 08:35:01;;;;;;;1.87;1.67;;;16.90;99.90;;;;;;5011591;28;20477;-67
2021/08/03 08:37:28;;;;;;;2.17;1.97;;;16.90;99.90;;;;;;5012378;28;20457;-67
2021/08/03 08:39:54;;;;;;;1.70;1.60;;;17.00;99.90;;;;;;5011113;28;20457;-68
2021/08/03 08:42:23;;;;;;;2.10;1.90;;;17.00;99.90;;;;;;5012148;28;20464;-67
2021/08/03 08:44:50;;;;;;;2.17;1.97;;;17.00;99.90;;;;;;5011755;28;20491;-68
2021/08/03 08:47:17;;;;;;;3.60;2.03;;;17.10;99.90;;;;;;5011783;28;20484;-68
2021/08/03 08:49:45;;;;;;;1.93;1.73;;;17.10;99.90;;;;;;5011012;28;20468;-68
2021/08/03 08:52:13;;;;;;;2.23;1.73;;;17.20;99.90;;;;;;5011420;28;20480;-67
2021/08/03 08:54:39;;;;;;;2.10;1.90;;;17.20;99.90;;;;;;5027194;28;20487;-67
2021/08/03 08:57:07;;;;;;;1.90;1.60;;;17.30;99.90;;;;;;5020043;28;20840;-67
2021/08/03 08:59:35;;;;;;;2.00;1.60;;;17.30;99.90;;;;;;5023476;28;20460;-67
2021/08/03 09:02:02;;;;;;;1.87;1.70;;;17.40;99.90;;;;;;5026728;28;20464;-67
2021/08/03 09:04:28;;;;;;;2.47;1.83;;;17.40;99.90;;;;;;5029230;28;20456;-68
2021/08/03 09:07:03;;;;;;;1.90;1.67;;;17.50;99.90;;;;;;5027409;28;21395;-67
2021/08/03 09:09:39;;;;;;;1.60;1.50;;;17.50;99.90;;;;;;5028654;28;20721;-67
2021/08/03 09:12:06;;;;;;;1.93;1.70;;;17.50;99.90;;;;;;5029463;28;20468;-67
2021/08/03 09:14:35;;;;;;;1.90;1.70;;;17.50;99.90;;;;;;5029024;28;20479;-67
2021/08/03 09:17:04;;;;;;;2.20;1.50;;;17.50;99.90;;;;;;5029115;28;20725;-68
2021/08/03 09:19:35;;;;;;;2.60;1.70;;;17.50;99.90;;;;;;5027580;28;21043;-67
2021/08/03 09:22:13;;;;;;;2.10;1.90;;;17.50;99.90;;;;;;5028517;28;20549;-67
2021/08/03 09:24:42;;;;;;;3.80;1.97;;;17.50;99.90;;;;;;5028826;28;20558;-67
2021/08/03 09:27:08;;;;;;;3.87;2.20;;;17.40;99.90;;;;;;5029250;28;20464;-68
2021/08/03 09:29:45;;;;;;;2.37;2.00;;;17.30;99.90;;;;;;5028373;28;20496;-67
2021/08/03 09:32:13;;;;;;;2.67;1.80;;;17.20;99.90;;;;;;5028993;28;20467;-67
2021/08/03 09:34:39;;;;;;;2.30;2.10;;;17.20;99.90;;;;;;5028925;28;20970;-67
2021/08/03 09:37:06;;;;;;;2.70;1.87;;;17.20;99.90;;;;;;5028625;28;20475;-67
2021/08/03 09:39:38;;;;;;;2.17;2.03;;;17.20;99.90;;;;;;5028535;28;21122;-67
2021/08/03 09:42:08;;;;;;;3.80;2.47;;;17.20;99.90;;;;;;5029135;28;20464;-67
2021/08/03 09:44:37;;;;;;;2.40;2.20;;;17.20;99.90;;;;;;5028463;28;20468;-67
2021/08/03 09:47:05;;;;;;;2.50;1.97;;;17.20;99.90;;;;;;5028868;28;20923;-68
2021/08/03 09:49:40;;;;;;;2.30;2.10;;;17.20;99.90;;;;;;5028279;28;20527;-67
2021/08/03 09:52:08;;;;;;;6.40;2.20;;;17.00;99.90;;;;;;5027624;28;20507;-67
2021/08/03 09:54:36;;;;;;;3.10;2.07;;;17.00;99.90;;;;;;5025616;28;20551;-67
2021/08/03 09:57:04;;;;;;;1.63;1.53;;;16.90;99.90;;;;;;5028624;28;20960;-67
2021/08/03 09:59:35;;;;;;;2.90;2.37;;;16.90;99.90;;;;;;5028459;28;20461;-66
2021/08/03 10:02:03;;;;;;;2.60;2.40;;;16.80;99.90;;;;;;5028564;28;20471;-67
2021/08/03 10:04:32;;;;;;;2.23;2.03;;;16.80;99.90;;;;;;5028301;28;20495;-66
2021/08/03 10:07:00;;;;;;;1.93;1.83;;;16.70;99.90;;;;;;5028209;28;20464;-67
2021/08/03 10:09:27;;;;;;;2.67;1.90;;;16.60;99.90;;;;;;5027849;28;20578;-67
2021/08/03 10:11:56;;;;;;;1.80;1.67;;;16.60;99.90;;;;;;5028203;28;20483;-67
2021/08/03 10:14:24;;;;;;;2.30;2.10;;;16.50;99.90;;;;;;5029265;28;20479;-67
2021/08/03 10:16:53;;;;;;;2.80;1.87;;;16.60;99.90;;;;;;5048539;28;20486;-67
2021/08/03 10:19:23;;;;;;;1.70;1.60;;;16.70;99.90;;;;;;5047322;28;20465;-67
2021/08/03 10:22:04;;;;;;;2.20;1.97;;;16.70;99.90;;;;;;5048146;28;20975;-67
2021/08/03 10:24:34;;;;;;;5.07;1.83;;;16.80;99.90;;;;;;5027260;28;20508;-67
2021/08/03 10:27:07;;;;;;;2.03;1.80;;;16.80;99.90;;;;;;5022297;28;20956;-67
2021/08/03 10:29:35;;;;;;;2.23;2.00;;;16.80;99.90;;;;;;5028106;28;20483;-67
2021/08/03 10:32:02;;;;;;;2.40;2.20;;;16.80;99.90;;;;;;5024102;28;20467;-67
2021/08/03 10:35:00;;;;;;;3.57;2.10;;;16.80;99.90;;;;;;5018379;28;20540;-67
2021/08/03 10:38:09;;;;;;;3.00;2.20;;;16.80;99.90;;;;;;4939019;28;20464;-67
2021/08/03 10:41:10;;;;;;;2.80;1.73;;;16.80;99.90;;;;;;5006905;28;20799;-67
2021/08/03 10:43:52;;;;;;;2.53;2.10;;;16.90;99.90;;;;;;5016462;28;20464;-67
2021/08/03 10:46:42;;;;;;;2.70;1.93;;;16.90;99.90;;;;;;5016997;28;20485;-67
2021/08/03 10:49:10;;;;;;;1.90;1.80;;;17.00;99.90;;;;;;5007472;28;20489;-67
2021/08/03 10:51:45;;;;;;;3.30;2.17;;;17.00;99.90;;;;;;5006829;28;20477;-67
2021/08/03 10:54:19;;;;;;;3.30;2.27;;;17.00;99.90;;;;;;5015712;28;20468;-67
2021/08/03 10:57:22;;;;;;;4.27;2.60;;;17.00;99.90;;;;;;5014849;28;20493;-67
2021/08/03 11:00:05;;;;;;;4.77;2.80;;;17.00;99.90;;;;;;5016931;28;20551;-67
2021/08/03 11:02:59;;;;;;;2.77;2.37;;;17.00;99.90;;;;;;5007370;28;20967;-67
2021/08/03 11:05:31;;;;;;;3.03;2.50;;;17.00;99.90;;;;;;5005165;28;20499;-67
2021/08/03 11:08:39;;;;;;;2.60;2.30;;;17.00;99.90;;;;;;5019005;28;20837;-66
2021/08/03 11:11:09;;;;;;;4.70;2.70;;;17.10;99.90;;;;;;5017216;28;20599;-67
2021/08/03 11:13:39;;;;;;;2.83;2.37;;;17.30;99.90;;;;;;5021212;28;20472;-66
2021/08/03 11:16:12;;;;;;;3.67;2.80;;;17.40;99.90;;;;;;5026691;28;20576;-67
2021/08/03 11:18:41;;;;;;;3.80;2.70;;;17.50;99.90;;;;;;5026873;28;20453;-67
2021/08/03 11:21:10;;;;;;;2.83;2.10;;;17.60;99.90;;;;;;5025887;28;20461;-66
2021/08/03 11:24:15;;;;;;;2.13;1.80;;;17.60;99.90;;;;;;5026866;28;20519;-67
2021/08/03 11:26:52;;;;;;;2.30;2.10;;;17.60;99.90;;;;;;5014861;28;20489;-67
2021/08/03 11:29:20;;;;;;;3.63;2.20;;;17.60;99.90;;;;;;5014522;28;21000;-67
2021/08/03 11:31:54;;;;;;;2.57;2.13;;;17.60;99.90;;;;;;5023568;28;20830;-67
2021/08/03 11:34:26;;;;;;;5.70;2.27;;;17.60;99.90;;;;;;5026392;28;20452;-67
2021/08/03 11:37:04;;;;;;;2.50;2.00;;;17.60;99.90;;;;;;5026595;28;20469;-67
2021/08/03 11:39:34;;;;;;;2.00;1.90;;;17.70;99.90;;;;;;5025191;28;20460;-67
2021/08/03 11:42:03;;;;;;;2.20;2.00;;;17.80;99.90;;;;;;5025179;28;21019;-67
2021/08/03 11:44:30;;;;;;;1.70;1.60;;;17.90;99.90;;;;;;5025231;28;20598;-67
2021/08/03 11:47:00;;;;;;;2.50;2.20;;;17.90;99.90;;;;;;5025004;28;20492;-67
2021/08/03 11:49:34;;;;;;;2.00;1.80;;;17.90;99.90;;;;;;5025495;28;20488;-67
2021/08/03 11:52:14;;;;;;;2.20;2.00;;;17.90;99.90;;;;;;5024979;28;20488;-67
2021/08/03 11:54:42;;;;;;;2.27;2.07;;;17.90;99.90;;;;;;5025412;28;20522;-67
2021/08/03 11:57:34;;;;;;;2.83;2.33;;;17.90;99.90;;;;;;5014572;28;20467;-67
2021/08/03 12:00:20;;;;;;;2.23;2.03;;;17.90;99.90;;;;;;5022598;28;20452;-67
2021/08/03 12:02:49;;;;;;;2.67;2.20;;;17.80;99.90;;;;;;5024125;28;20543;-67
2021/08/03 12:05:24;;;;;;;2.07;1.80;;;17.80;99.90;;;;;;5025036;28;20559;-67
2021/08/03 12:07:58;;;;;;;1.40;1.30;;;17.80;99.90;;;;;;5015139;28;20831;-67
2021/08/03 12:10:26;;;;;;;4.23;2.10;;;17.80;99.90;;;;;;5005081;28;20492;-67
2021/08/03 12:12:54;;;;;;;2.13;1.93;;;17.70;99.90;;;;;;5005181;28;20469;-67
2021/08/03 12:15:23;;;;;;;1.93;1.80;;;17.60;99.90;;;;;;5005440;28;21020;-67
2021/08/03 12:18:00;;;;;;;2.13;1.60;;;17.50;99.90;;;;;;5005532;28;20473;-66
2021/08/03 12:20:32;;;;;;;1.80;1.70;;;17.50;99.90;;;;;;5005076;28;21012;-67
2021/08/03 12:23:26;;;;;;;2.57;1.80;;;17.50;99.90;;;;;;5005259;28;20465;-67
2021/08/03 12:26:00;;;;;;;2.10;1.90;;;17.50;99.90;;;;;;4991710;28;20492;-66
2021/08/03 12:28:34;;;;;;;2.03;1.60;;;17.60;99.90;;;;;;5004790;28;20461;-66
2021/08/03 12:31:16;;;;;;;3.13;1.90;;;17.60;99.90;;;;;;5004998;28;20470;-66
2021/08/03 12:33:43;;;;;;;1.93;1.73;;;17.60;99.90;;;;;;5005783;28;20461;-66
2021/08/03 12:36:15;;;;;;;2.03;1.83;;;17.60;99.90;;;;;;5004887;28;20504;-66
2021/08/03 12:38:43;;;;;;;1.83;1.50;;;17.60;99.90;;;;;;5005652;28;20468;-66
2021/08/03 12:41:18;;;;;;;1.97;1.70;;;17.60;99.90;;;;;;5004626;28;20467;-66
2021/08/03 12:43:47;;;;;;;1.70;1.60;;;17.70;99.90;;;;;;5005057;28;21046;-66
2021/08/03 12:46:15;;;;;;;1.77;1.67;;;17.80;99.90;;;;;;5005321;28;20543;-67
2021/08/03 12:48:52;;;;;;;1.57;1.40;;;17.90;99.90;;;;;;5005110;28;20739;-66
2021/08/03 12:51:27;;;;;;;1.70;1.50;;;18.00;99.90;;;;;;5005169;28;20874;-67
2021/08/03 12:53:54;;;;;;;1.67;1.53;;;18.10;99.90;;;;;;5005237;28;20922;-67
2021/08/03 12:56:29;;;;;;;1.60;1.50;;;18.10;99.90;;;;;;5008245;28;20485;-67
2021/08/03 12:58:57;;;;;;;1.93;1.30;;;18.20;99.90;;;;;;5008575;28;20556;-67
2021/08/03 13:01:25;;;;;;;2.27;1.53;;;18.50;99.90;;;;;;5008081;28;20471;-66
2021/08/03 13:03:53;;;;;;;1.97;1.50;;;18.70;99.90;;;;;;5015409;28;20519;-67